Airfield :
LOGIN :

Register | Disclaimer

   EN    FR    IT 

 










Legend :    VFR   Marginal VFR   IFR   Intensive IFR   Very Intensive IFR
Visi :
Ceiling :
>= 8 km
>= 3000ft
5 to 8 km
1000 to 3000 ft
1500m to 5 km
500 to 1000 ft
800 to 1500m
200 to 500 ft
< 800m
< 200 ft
Symbols :   Thunderstorms  Fog  Heavy snow  Heavy precipitations  Wind > 20 kt
SIGMETs :     Misc.  Thunderstorms  Icing  Turbulence  Mountain Waves  Volcanic Ashes







- Airport Elevation : 390 ft
- IATA code : NQY
- Download approach charts


EGHQ - Newquay

CURRENT METAR :
  • 181050Z 17016KT 9999 BKN006 08/08 Q1009

EXPIRED METARs :
  • 181020Z 17019KT 9000 -RA BKN005 07/07 Q1009
  • 180920Z 17017KT 5000 -DZ BR BKN008 07/07 Q1010
  • 180850Z 16018KT 9999 BKN009 07/06 Q1010
  • 180820Z 16017KT 8000 BKN013 07/06 Q1010

TAF TAF EGHQ
Valid from the 18 at 09:00 until the 18 at 18:00 UTC


180803Z 1809/1818 18016KT 9999 BKN020
TEMPO 1809/1812 7000 RA BKN006
PROB30
TEMPO 1809/1812 18022G32KT 4000 SHRAGS +RA BKN004
BECMG 1812/1815 27012KT
PROB30
TEMPO 1812/1818 7000 SHRA BKN014
No reported NOTAMs for that airfield.



MET'MAP, your aeronautical weather chart ! - Copyright ORBIFLY December 2007 - Disclaimer

ORBIFLY MET'MAP TEAM :

Programming & Development : Alexandra Zaïnal
Concept & Development : Baudouin d'Aumeries
Co-Development & Prog : Marc-Olivier Méhu
Technical & hardware support : Manuel Goepfert

Contact : metmap@orbifly.com




SOURCES & CREDITS :

   NOAA